West Candor, New York
Current Conditions -  °F | °C
As of 11:53 AM on Sunday 23 Nov 2014 (Local Time) from KBGM Reporting Station
Light Rain Light Rain  
Wind Chill: 41°   Ceiling: 7000
Heat Index: 46°   Visibility: 10mi
Dew Point: 34°   Wind: 9mph
Humidity: 63%   Direction: 210°SSW
Pressure: 30.09"   Gusts: NA
Location:  42.2148°N, 76.3401°W
Report Text: KBGM 231653Z 21008KT 10SM -RA SCT041 BKN070 OVC085 08/01 A3009 RMK AO2 RAB17 SLP200 P0000 T00780011
Loading
Personal Weather Stations






























Interactive Weather Map New forecast layout! Learn more

10-Day Weather Forecast

Advertisements
Track Severe Weather on mobile